Aviation Digital Data Service (ADDS)

Output produced by METARs form (2336 UTC 25 June 2019)
found at http://aviationweather.gov/metar/data/
 
KMCB 252329Z 2600/2624 35006KT P6SM SCT100 OVC120 
     FM260400 VRB03KT P6SM OVC140